ADDS METAR Data INFO
IDs: Format: Raw Decoded Include TAF

Data at: 1342 UTC 25 Feb 2018

KFTG 251336Z AUTO 25011KT 10SM CLR M08/M14 A2985 RMK AO2 T10771144
KFTG 251318Z AUTO 25011KT 10SM CLR M07/M15 A2985 RMK AO2 T10751147
KFTG 251254Z AUTO 26009KT 10SM CLR M07/M15 A2985 RMK AO2 T10691151
KFTG 251236Z AUTO 24006KT 10SM CLR M06/M15 A2985 RMK AO2 T10651150
KFTG 251218Z AUTO 25006KT 10SM CLR M07/M15 A2985 RMK AO2 T10671151
KFTG 251212Z AUTO 25005KT 10SM CLR M07/M15 A2984 RMK AO2 T10661151
KFTG 251155Z AUTO 23005KT 10SM CLR M06/M15 A2984 RMK AO2 T10561154 11044 21086
KFTG 251137Z AUTO 23006KT 10SM CLR M06/M15 A2983 RMK AO2 T10571151
KFTG 251113Z AUTO 25005KT 10SM CLR M07/M15 A2983 RMK AO2 T10671148
KFTG 251054Z AUTO 24008KT 10SM CLR M07/M15 A2982 RMK AO2 T10671146
KFTG 251036Z AUTO 26005KT 10SM CLR M08/M14 A2983 RMK AO2 T10801141
KFTG 251018Z AUTO 25007KT 10SM CLR M08/M14 A2983 RMK AO2 T10791140
KFTG 251012Z AUTO 26008KT 10SM CLR M07/M14 A2982 RMK AO2 T10731142
KFTG 250954Z AUTO 23008KT 10SM CLR M05/M14 A2982 RMK AO2 T10481144
KFTG 250934Z AUTO 20010KT 10SM CLR M07/M14 A2981 RMK AO2 T10671138
KFTG 250917Z AUTO 19007KT 10SM CLR M07/M13 A2982 RMK AO2 T10701133
KFTG 250856Z AUTO 18003KT 10SM CLR M07/M13 A2983 RMK AO2 T10671132
KFTG 250838Z AUTO 19007KT 10SM CLR M07/M13 A2983 RMK AO2 T10741128
KFTG 250832Z AUTO 17006KT 10SM CLR M08/M13 A2983 RMK AO2 T10761126
KFTG 250814Z AUTO 17007KT 10SM CLR M08/M12 A2983 RMK AO2 T10781120
KFTG 250754Z AUTO 17007KT 10SM CLR M08/M12 A2984 RMK AO2 T10801123
KFTG 250736Z AUTO 18005KT 10SM CLR M07/M12 A2984 RMK AO2 T10751123
KFTG 250718Z AUTO 18005KT 10SM CLR M07/M12 A2985 RMK AO2 T10721124
KFTG 250712Z AUTO 18005KT 10SM CLR M07/M12 A2985 RMK AO2 T10701123
KFTG 250658Z AUTO 18005KT 10SM CLR M06/M12 A2985 RMK AO2 T10651123 400321066
KFTG 250652Z AUTO 17005KT 10SM CLR M06/M12 A2985 RMK AO2 T10641124
KFTG 250635Z AUTO 17004KT 10SM CLR M06/M13 A2985 RMK AO2 T10571126
KFTG 250618Z AUTO 17007KT 10SM CLR M06/M12 A2985 RMK AO2 T10611122
KFTG 250554Z AUTO 17005KT 10SM CLR M06/M12 A2985 RMK AO2 T10611122
KFTG 250536Z AUTO 16006KT 10SM CLR M06/M12 A2985 RMK AO2 T10561120
KFTG 250518Z AUTO 16007KT 10SM CLR M06/M12 A2984 RMK AO2 T10571121
KFTG 250454Z AUTO 17004KT 10SM CLR M05/M13 A2985 RMK AO2 T10471128
KFTG 250436Z AUTO 14007KT 10SM CLR M06/M13 A2983 RMK AO2 T10561134
KFTG 250418Z AUTO 35003KT 10SM CLR M02/M17 A2983 RMK AO2 T10211169
KFTG 250347Z 00000KT 10SM FEW220 M03/M16 A2981
KFTG 250247Z 09004KT 10SM FEW100 SCT220 M02/M15 A2980
KFTG 250150Z 33007G14KT 10SM FEW100 SCT220 M01/M15 A2979
KFTG 250053Z 32009KT 10SM FEW070 FEW180 M01/M17 A2977
KFTG 242347Z 32008KT 10SM FEW070 FEW180 03/M16 A2975
KFTG 242247Z 28018G23KT 10SM FEW070 FEW180 03/M17 A2974
KFTG 242147Z 28018G24KT 10SM FEW050 SCT100 03/M19 A2974
KFTG 242047Z 27027G34KT 10SM FEW050 SCT100 03/M16 A2974
KFTG 241957Z 27026G33KT 10SM FEW050 SCT100 03/M18 A2974
KFTG 241852Z 28021G29KT 10SM FEW050 FEW100 02/M18 A2976
KFTG 241750Z 25020G25KT 10SM FEW050 FEW100 01/M17 A2976
KFTG 241657Z 25022G33KT 10SM FEW050 FEW100 00/M17 A2977
KFTG 241547Z 26012G33KT 10SM FEW050 FEW100 M01/M14 A2978
KFTG 241455Z 29010G17KT 10SM FEW050 FEW10 M04/M09 A2979
KFTG 241359Z AUTO 24009KT 4SM BR CLR M06/M06 A2979 RMK AO2 T10561064
KFTG 241354Z AUTO 24009KT 4SM BR CLR M06/M07 A2979 RMK AO2 T10591069
KFTG 241347Z 23009KT 7SM BR FEW050 SCT100 M06/M07 A2979
KFTG 241336Z AUTO 24006KT 4SM BR SCT001 M06/M07 A2979 RMK AO2 T10641075
KFTG 241318Z AUTO 22006KT 1/2SM -SN OVC001 M06/M07 A2979 RMK AO2 T10621071
KFTG 241312Z AUTO 22006KT 1/4SM -SN OVC001 M06/M07 A2979 RMK AO2 T10611070
KFTG 241254Z AUTO 23005KT 1/4SM -SN OVC001 M05/M06 A2980 RMK AO2 T10551062
KFTG 241236Z AUTO 22004KT 3SM BR SCT001 BKN090 M06/M06 A2979 RMK AO2 T10571065
KFTG 241218Z AUTO 26004KT 3SM BR BKN090 M06/M07 A2978 RMK AO2 T10591067
KFTG 241212Z AUTO 29005KT 3SM BR BKN090 M06/M06 A2978 RMK AO2 T10561064
KFTG 241154Z AUTO 30004KT 3SM BR OVC090 M05/M06 A2978 RMK AO2 T10501057
KFTG 241136Z AUTO 28007KT 4SM BR SCT003 OVC090 M04/M05 A2978 RMK AO2 T10401049
KFTG 241118Z AUTO 29006KT 3SM BR BKN003 OVC090 M04/M05 A2979 RMK AO2 T10391047
KFTG 241112Z AUTO 31006KT 3SM BR OVC003 M04/M04 A2979 RMK AO2 T10371045
KFTG 241054Z AUTO 30007KT 3SM BR OVC003 M04/M04 A2979 RMK AO2 T10371045
KFTG 241036Z AUTO 29007KT 4SM BR OVC003 M04/M04 A2980 RMK AO2 T10371045
KFTG 241018Z AUTO 28009G16KT 5SM BR BKN003 BKN022 OVC080 M04/M04 A2980 RMK AO2 T10361043
KFTG 241012Z AUTO 28008G16KT 5SM BR BKN003 BKN024 OVC080 M04/M04 A2980 RMK AO2 T10371045
KFTG 240954Z AUTO 27009G16KT 4SM BR SCT003 SCT024 OVC080 M04/M04 A2979 RMK AO2 T10381045
KFTG 240936Z AUTO 28008G18KT 3SM BR BKN003 OVC090 M04/M05 A2979 RMK AO2 T10401047
KFTG 240918Z AUTO 30009KT 4SM BR SCT003 OVC090 M04/M05 A2978 RMK AO2 T10371047
KFTG 240912Z AUTO 29009KT 5SM BR SCT080 OVC100 M03/M05 A2979 RMK AO2 T10351046
KFTG 240854Z AUTO 27009G18KT 10SM OVC100 M03/M05 A2980 RMK AO2 T10311046
KFTG 240836Z AUTO 25009KT 7SM OVC090 M03/M04 A2982 RMK AO2 T10301045
KFTG 240818Z AUTO 24010KT 5SM BR SCT080 OVC090 M03/M04 A2981 RMK AO2 T10291042
KFTG 240812Z AUTO 24010KT 7SM SCT023 OVC100 M03/M04 A2981 RMK AO2 T10281042
KFTG 240753Z AUTO 25008KT 5SM BR BKN023 OVC100 M03/M04 A2981 RMK AO2 T10281042
KFTG 240735Z AUTO 23005KT 5SM BR SCT005 SCT013 OVC021 M03/M04 A2983 RMK AO2 T10271040
KFTG 240718Z AUTO 23005KT 3SM BR BKN005 OVC013 M03/M04 A2983 RMK AO2 T10301038
KFTG 240712Z AUTO 27003KT 3SM BR BKN005 OVC011 M03/M04 A2984 RMK AO2 T10301038
KFTG 240653Z AUTO 00000KT 2 1/2SM BR BKN005 OVC009 M03/M04 A2985 RMK AO2 T10301039
KFTG 240636Z AUTO 00000KT 2 1/2SM BR OVC005 M03/M04 A2985 RMK AO2 T10311040
KFTG 240618Z AUTO 00000KT 2 1/2SM BR OVC005 M03/M04 A2986 RMK AO2 T10311040
KFTG 240554Z AUTO 00000KT 2 1/2SM BR OVC005 M03/M04 A2987 RMK AO2 T10321040
KFTG 240536Z AUTO 00000KT 2SM BR OVC005 M03/M04 A2987 RMK AO2 T10331040
KFTG 240518Z AUTO 35003KT 2SM BR OVC005 M03/M04 A2987 RMK AO2 T10331041
KFTG 240455Z AUTO 00000KT 2 1/2SM BR OVC005 M03/M04 A2989 RMK AO2 T10331041
KFTG 240437Z AUTO 28008G14KT 2 1/2SM BR OVC005 M03/M04 A2987 RMK AO2 T10301040
KFTG 240413Z AUTO 28008KT 3SM BR OVC005 M03/M04 A2990 RMK AO2 T10301040
KFTG 240347Z 26010G16KT 3SM BR OVC005 M03/M04 A2990
KFTG 240249Z 27015G20KT 4SM BR BKN009 OVC013 M03/M04 A2991
KFTG 240147Z 26009KT 2SM BR OVC009 M03/M04 A2991